createdAt,value
2023-05-01T00:00:38.345Z,100.00
2023-05-01T00:03:06.819Z,100.00
2023-05-01T00:05:34.787Z,100.00
2023-05-01T00:08:03.573Z,100.00
2023-05-01T00:10:31.818Z,100.00
2023-05-01T00:12:59.735Z,100.00
2023-05-01T00:15:27.661Z,100.00
2023-05-01T00:17:55.818Z,100.00
2023-05-01T00:20:28.324Z,100.00
2023-05-01T00:22:56.723Z,100.00
2023-05-01T00:25:24.729Z,100.00
2023-05-01T00:27:52.682Z,100.00
2023-05-01T00:30:21.012Z,100.00
2023-05-01T00:32:48.988Z,100.00
2023-05-01T00:35:17.038Z,100.00
2023-05-01T00:37:45.168Z,100.00
2023-05-01T00:40:13.146Z,100.00
2023-05-01T00:42:41.028Z,100.00
2023-05-01T00:45:09.933Z,100.00
2023-05-01T00:47:38.919Z,100.00
2023-05-01T00:50:07.987Z,100.00
2023-05-01T00:52:36.443Z,100.00
2023-05-01T00:55:05.520Z,100.00
2023-05-01T00:57:33.855Z,100.00
2023-05-01T01:00:01.978Z,100.00
2023-05-01T01:02:29.965Z,100.00
2023-05-01T01:04:58.400Z,100.00
2023-05-01T01:08:08.099Z,100.00
2023-05-01T01:10:47.116Z,100.00
2023-05-01T01:13:34.142Z,100.00
2023-05-01T01:16:19.571Z,100.00
2023-05-01T01:19:19.470Z,100.00
2023-05-01T01:21:55.457Z,100.00
2023-05-01T01:25:20.551Z,100.00
2023-05-01T01:28:25.858Z,100.00
2023-05-01T01:31:21.581Z,100.00
2023-05-01T01:33:51.743Z,100.00
2023-05-01T01:36:48.308Z,100.00
2023-05-01T01:39:21.214Z,100.00
2023-05-01T01:41:53.653Z,100.00
2023-05-01T01:44:40.372Z,100.00
2023-05-01T01:47:12.445Z,100.00
2023-05-01T01:49:47.211Z,100.00
2023-05-01T01:52:17.440Z,100.00
2023-05-01T01:55:13.526Z,100.00
2023-05-01T01:57:45.166Z,100.00
2023-05-01T02:00:16.568Z,100.00
2023-05-01T02:02:49.089Z,100.00
2023-05-01T02:05:19.562Z,100.00
2023-05-01T02:07:50.372Z,100.00
2023-05-01T02:10:19.819Z,100.00
2023-05-01T02:12:51.142Z,100.00
2023-05-01T02:15:21.179Z,100.00
2023-05-01T02:17:51.430Z,100.00
2023-05-01T02:20:21.698Z,100.00
2023-05-01T02:22:53.650Z,100.00
2023-05-01T02:25:22.311Z,100.00
2023-05-01T02:28:01.039Z,100.00
2023-05-01T02:30:29.283Z,100.00
2023-05-01T02:32:58.007Z,100.00
2023-05-01T02:35:26.467Z,100.00
2023-05-01T02:37:54.427Z,100.00
2023-05-01T02:40:22.557Z,100.00
2023-05-01T02:42:53.397Z,100.00
2023-05-01T02:45:25.357Z,100.00
2023-05-01T02:48:00.115Z,100.00
2023-05-01T02:50:28.876Z,100.00
2023-05-01T02:52:58.589Z,100.00
2023-05-01T02:55:37.772Z,100.00
2023-05-01T02:58:05.713Z,100.00
2023-05-01T03:00:33.690Z,100.00
2023-05-01T03:03:01.991Z,100.00
2023-05-01T03:05:30.164Z,100.00
2023-05-01T03:07:58.087Z,100.00
2023-05-01T03:10:26.439Z,100.00
2023-05-01T03:12:54.285Z,100.00
2023-05-01T03:15:22.342Z,100.00
2023-05-01T03:17:50.783Z,100.00
2023-05-01T03:20:18.712Z,100.00
2023-05-01T03:22:46.629Z,100.00
2023-05-01T03:25:15.282Z,100.00
2023-05-01T03:27:43.195Z,100.00
2023-05-01T03:30:13.118Z,100.00
2023-05-01T03:32:43.100Z,100.00
2023-05-01T03:35:19.368Z,100.00
2023-05-01T03:37:47.891Z,100.00
2023-05-01T03:40:26.256Z,100.00
2023-05-01T03:43:13.064Z,100.00
2023-05-01T03:45:42.263Z,100.00
2023-05-01T03:48:14.186Z,100.00
2023-05-01T03:50:42.949Z,100.00
2023-05-01T03:53:11.991Z,100.00
2023-05-01T03:55:40.701Z,100.00
2023-05-01T03:58:09.032Z,100.00
2023-05-01T04:00:37.825Z,100.00
2023-05-01T04:03:06.080Z,100.00
2023-05-01T04:05:36.168Z,100.00
2023-05-01T04:08:04.808Z,100.00
2023-05-01T04:10:33.271Z,100.00
2023-05-01T04:13:07.032Z,100.00
2023-05-01T04:15:36.470Z,100.00
2023-05-01T04:18:04.825Z,100.00
2023-05-01T04:20:34.188Z,100.00
2023-05-01T04:23:02.235Z,100.00
2023-05-01T04:25:30.259Z,100.00
2023-05-01T04:28:12.379Z,100.00
2023-05-01T04:30:40.424Z,100.00
2023-05-01T04:33:11.747Z,100.00
2023-05-01T04:35:43.850Z,100.00
2023-05-01T04:38:12.118Z,100.00
2023-05-01T04:40:41.893Z,100.00
2023-05-01T04:43:11.458Z,100.00
2023-05-01T04:45:40.024Z,100.00
2023-05-01T04:48:08.352Z,100.00
2023-05-01T04:50:37.905Z,100.00
2023-05-01T04:53:06.039Z,100.00
2023-05-01T04:55:36.603Z,100.00
2023-05-01T04:58:13.285Z,100.00
2023-05-01T05:00:41.765Z,100.00
2023-05-01T05:03:12.542Z,100.00
2023-05-01T05:05:40.762Z,100.00
2023-05-01T05:08:09.471Z,100.00
2023-05-01T05:10:40.932Z,100.00
2023-05-01T05:13:22.188Z,100.00
2023-05-01T05:15:58.067Z,100.00
2023-05-01T05:18:27.573Z,100.00
2023-05-01T05:20:56.456Z,100.00
2023-05-01T05:23:24.916Z,100.00
2023-05-01T05:25:53.041Z,100.00
2023-05-01T05:28:21.272Z,100.00
2023-05-01T05:30:49.565Z,100.00
2023-05-01T05:33:20.918Z,100.00
2023-05-01T05:35:49.288Z,100.00
2023-05-01T05:38:17.918Z,100.00
2023-05-01T05:40:48.928Z,100.00
2023-05-01T05:43:17.271Z,100.00
2023-05-01T05:45:46.072Z,100.00
2023-05-01T05:48:14.616Z,100.00
2023-05-01T05:50:42.719Z,100.00
2023-05-01T05:53:13.938Z,100.00
2023-05-01T05:55:46.891Z,100.00
2023-05-01T05:58:20.147Z,100.00
2023-05-01T06:00:51.048Z,100.00
2023-05-01T06:03:20.255Z,100.00
2023-05-01T06:05:49.112Z,100.00
2023-05-01T06:08:17.413Z,100.00
2023-05-01T06:10:45.483Z,100.00
2023-05-01T06:13:14.877Z,100.00
2023-05-01T06:15:49.450Z,100.00
2023-05-01T06:18:17.867Z,100.00
2023-05-01T06:20:47.356Z,100.00
2023-05-01T06:23:16.749Z,100.00
2023-05-01T06:26:05.094Z,100.00
2023-05-01T06:28:33.840Z,100.00
2023-05-01T06:31:02.090Z,100.00
2023-05-01T06:33:34.897Z,100.00
2023-05-01T06:36:13.760Z,100.00
2023-05-01T06:38:48.786Z,100.00
2023-05-01T06:41:17.401Z,100.00
2023-05-01T06:43:46.935Z,100.00
2023-05-01T06:46:17.604Z,100.00
2023-05-01T06:48:46.389Z,100.00
2023-05-01T06:51:16.252Z,98.63
2023-05-01T06:53:44.425Z,99.20
2023-05-01T06:56:12.401Z,97.36
2023-05-01T06:58:40.555Z,96.97
2023-05-01T07:01:09.934Z,93.76
2023-05-01T07:03:37.928Z,95.27
2023-05-01T07:06:06.444Z,96.55
2023-05-01T07:08:34.620Z,97.31
2023-05-01T07:11:03.073Z,96.23
2023-05-01T07:13:32.013Z,94.72
2023-05-01T07:16:03.798Z,94.13
2023-05-01T07:18:32.052Z,93.48
2023-05-01T07:20:59.951Z,90.95
2023-05-01T07:23:27.984Z,90.51
2023-05-01T07:25:58.597Z,91.65
2023-05-01T07:28:26.740Z,92.60
2023-05-01T07:30:54.826Z,88.69
2023-05-01T07:33:27.343Z,86.01
2023-05-01T07:35:55.510Z,85.57
2023-05-01T07:38:23.891Z,84.20
2023-05-01T07:40:54.009Z,83.43
2023-05-01T07:43:22.595Z,81.82
2023-05-01T07:46:00.813Z,81.36
2023-05-01T07:48:29.139Z,79.83
2023-05-01T07:50:57.282Z,80.58
2023-05-01T07:53:25.645Z,80.17
2023-05-01T07:55:53.604Z,78.21
2023-05-01T07:58:21.600Z,76.72
2023-05-01T08:00:49.810Z,77.71
2023-05-01T08:03:18.333Z,76.63
2023-05-01T08:05:46.554Z,76.19
2023-05-01T08:08:20.960Z,77.04
2023-05-01T08:10:49.477Z,77.92
2023-05-01T08:13:17.689Z,76.14
2023-05-01T08:15:48.103Z,76.66
2023-05-01T08:18:20.627Z,73.06
2023-05-01T08:20:49.893Z,74.79
2023-05-01T08:23:18.749Z,72.45
2023-05-01T08:25:47.065Z,72.52
2023-05-01T08:28:21.587Z,73.96
2023-05-01T08:30:49.631Z,71.57
2023-05-01T08:33:18.115Z,74.02
2023-05-01T08:35:46.182Z,73.20
2023-05-01T08:38:14.246Z,71.49
2023-05-01T08:40:48.674Z,72.05
2023-05-01T08:43:17.389Z,70.86
2023-05-01T08:45:49.003Z,73.18
2023-05-01T08:48:20.989Z,71.46
2023-05-01T08:50:49.751Z,70.30
2023-05-01T08:53:21.045Z,70.82
2023-05-01T08:55:50.887Z,69.92
2023-05-01T08:58:22.325Z,69.39
2023-05-01T09:00:50.626Z,69.46
2023-05-01T09:03:19.668Z,67.47
2023-05-01T09:05:48.093Z,67.95
2023-05-01T09:08:16.463Z,67.89
2023-05-01T09:10:48.537Z,67.31
2023-05-01T09:13:16.843Z,67.58
2023-05-01T09:15:45.275Z,66.83
2023-05-01T09:18:13.644Z,67.44
2023-05-01T09:20:42.661Z,66.98
2023-05-01T09:23:11.634Z,66.87
2023-05-01T09:25:39.736Z,66.60
2023-05-01T09:28:07.761Z,67.71
2023-05-01T09:30:40.071Z,66.63
2023-05-01T09:33:13.981Z,66.40
2023-05-01T09:35:59.856Z,65.60
2023-05-01T09:38:29.731Z,65.50
2023-05-01T09:41:06.139Z,64.61
2023-05-01T09:43:34.541Z,66.64
2023-05-01T09:46:11.946Z,61.27
2023-05-01T09:48:57.910Z,61.47
2023-05-01T09:51:27.697Z,64.14
2023-05-01T09:54:06.123Z,62.98
2023-05-01T09:56:46.575Z,63.19
2023-05-01T09:59:21.584Z,62.51
2023-05-01T10:01:50.952Z,64.30
2023-05-01T10:04:34.700Z,63.69
2023-05-01T10:07:15.511Z,58.81
2023-05-01T10:09:43.776Z,58.36
2023-05-01T10:12:23.273Z,59.85
2023-05-01T10:14:56.106Z,60.02
2023-05-01T10:17:24.685Z,60.40
2023-05-01T10:19:53.299Z,59.42
2023-05-01T10:22:22.151Z,61.14
2023-05-01T10:24:50.723Z,60.91
2023-05-01T10:27:20.011Z,60.72
2023-05-01T10:29:49.525Z,59.10
2023-05-01T10:32:17.675Z,58.30
2023-05-01T10:34:58.976Z,56.33
2023-05-01T10:37:48.057Z,57.01
2023-05-01T10:40:44.624Z,57.30
2023-05-01T10:43:30.962Z,55.77
2023-05-01T10:46:08.555Z,55.04
2023-05-01T10:48:39.554Z,55.58
2023-05-01T10:51:20.568Z,56.19
2023-05-01T10:54:10.734Z,54.69
2023-05-01T10:56:38.748Z,55.20
2023-05-01T10:59:06.972Z,54.71
2023-05-01T11:01:44.971Z,54.96
2023-05-01T11:04:22.502Z,56.52
2023-05-01T11:07:19.081Z,55.79
2023-05-01T11:09:59.048Z,55.82
2023-05-01T11:12:45.880Z,54.29
2023-05-01T11:15:34.036Z,54.50
2023-05-01T11:18:04.048Z,53.85
2023-05-01T11:20:37.979Z,53.18
2023-05-01T11:23:08.021Z,55.09
2023-05-01T11:25:36.337Z,53.39
2023-05-01T11:28:07.875Z,54.38
2023-05-01T11:30:39.820Z,57.24
2023-05-01T11:33:10.701Z,54.78
2023-05-01T11:35:39.347Z,53.75
2023-05-01T11:38:16.552Z,51.73
2023-05-01T11:40:45.454Z,51.62
2023-05-01T11:43:13.693Z,52.20
2023-05-01T11:45:41.700Z,51.84
2023-05-01T11:48:19.314Z,51.50
2023-05-01T11:50:47.559Z,53.98
2023-05-01T11:53:16.231Z,53.38
2023-05-01T11:55:45.186Z,53.18
2023-05-01T11:58:13.738Z,51.04
2023-05-01T12:00:44.845Z,53.59
2023-05-01T12:03:15.717Z,52.40
2023-05-01T12:05:45.790Z,52.00
2023-05-01T12:08:20.826Z,50.16
2023-05-01T12:10:52.714Z,52.06
2023-05-01T12:13:21.528Z,48.44
2023-05-01T12:15:53.559Z,49.93
2023-05-01T12:18:22.428Z,48.97
2023-05-01T12:20:54.371Z,51.16
2023-05-01T12:23:38.220Z,47.86
2023-05-01T12:26:28.171Z,48.99
2023-05-01T12:29:05.374Z,50.09
2023-05-01T12:31:34.217Z,49.83
2023-05-01T12:34:07.880Z,48.82
2023-05-01T12:36:37.798Z,48.11
2023-05-01T12:39:14.849Z,48.39
2023-05-01T12:41:49.124Z,48.40
2023-05-01T12:44:28.328Z,49.34
2023-05-01T12:47:08.070Z,47.65
2023-05-01T12:49:38.133Z,45.77
2023-05-01T12:52:09.161Z,45.62
2023-05-01T12:54:40.942Z,45.22
2023-05-01T12:57:12.230Z,45.67
2023-05-01T12:59:42.284Z,45.52
2023-05-01T13:02:15.056Z,45.85
2023-05-01T13:04:49.621Z,47.82
2023-05-01T13:07:19.551Z,48.53
2023-05-01T13:09:59.428Z,46.64
2023-05-01T13:12:28.880Z,48.96
2023-05-01T13:14:57.699Z,46.94
2023-05-01T13:17:31.537Z,46.20
2023-05-01T13:20:05.341Z,48.44
2023-05-01T13:22:36.223Z,45.83
2023-05-01T13:25:18.445Z,45.59
2023-05-01T13:27:51.597Z,45.65
2023-05-01T13:30:33.302Z,46.81
2023-05-01T13:33:02.209Z,46.66
2023-05-01T13:35:31.768Z,45.22
2023-05-01T13:38:00.750Z,45.76
2023-05-01T13:40:29.013Z,45.56
2023-05-01T13:42:57.163Z,46.63
2023-05-01T13:45:26.560Z,45.30
2023-05-01T13:47:55.587Z,44.99
2023-05-01T13:50:23.774Z,45.75
2023-05-01T13:52:51.866Z,43.83
2023-05-01T13:55:21.887Z,43.29
2023-05-01T13:57:50.066Z,42.90
2023-05-01T14:00:19.242Z,44.40
2023-05-01T14:02:49.577Z,43.50
2023-05-01T14:05:29.175Z,45.82
2023-05-01T14:07:59.386Z,44.10
2023-05-01T14:10:30.114Z,43.42
2023-05-01T14:12:59.637Z,42.48
2023-05-01T14:15:29.884Z,43.26
2023-05-01T14:18:01.180Z,43.67
2023-05-01T14:20:29.262Z,44.18
2023-05-01T14:22:57.229Z,43.35
2023-05-01T14:25:31.389Z,43.79
2023-05-01T14:28:02.385Z,43.08
2023-05-01T14:30:38.606Z,42.66
2023-05-01T14:33:14.036Z,41.74
2023-05-01T14:35:53.602Z,44.47
2023-05-01T14:38:22.896Z,43.37
2023-05-01T14:40:51.058Z,43.63
2023-05-01T14:43:24.267Z,43.65
2023-05-01T14:45:52.851Z,42.60
2023-05-01T14:48:30.023Z,44.80
2023-05-01T14:50:59.514Z,44.71
2023-05-01T14:53:32.945Z,44.62
2023-05-01T14:56:01.426Z,44.00
2023-05-01T14:58:29.875Z,44.61
2023-05-01T15:00:58.372Z,45.00
2023-05-01T15:03:27.721Z,45.38
2023-05-01T15:05:56.961Z,45.07
2023-05-01T15:08:25.212Z,45.42
2023-05-01T15:10:53.739Z,45.03
2023-05-01T15:13:22.383Z,44.59
2023-05-01T15:15:50.685Z,45.71
2023-05-01T15:18:19.310Z,44.27
2023-05-01T15:20:48.759Z,44.51
2023-05-01T15:23:17.050Z,46.50
2023-05-01T15:25:45.795Z,46.92
2023-05-01T15:28:14.479Z,47.21
2023-05-01T15:30:47.608Z,46.84
2023-05-01T15:33:18.814Z,46.66
2023-05-01T15:35:49.052Z,46.61
2023-05-01T15:38:18.244Z,48.25
2023-05-01T15:40:46.844Z,46.98
2023-05-01T15:43:15.195Z,47.19
2023-05-01T15:45:44.931Z,46.96
2023-05-01T15:48:13.353Z,46.64
2023-05-01T15:50:41.745Z,48.26
2023-05-01T15:53:09.871Z,48.84
2023-05-01T15:55:37.810Z,49.97
2023-05-01T15:58:06.117Z,48.41
2023-05-01T16:00:36.118Z,47.91
2023-05-01T16:03:04.764Z,48.49
2023-05-01T16:05:33.089Z,48.29
2023-05-01T16:08:01.820Z,48.25
2023-05-01T16:10:33.340Z,48.01
2023-05-01T16:13:01.815Z,49.19
2023-05-01T16:15:31.358Z,49.92
2023-05-01T16:18:00.268Z,49.70
2023-05-01T16:20:35.254Z,48.83
2023-05-01T16:23:03.603Z,48.28
2023-05-01T16:25:56.592Z,48.77
2023-05-01T16:28:26.459Z,49.46
2023-05-01T16:30:54.443Z,49.63
2023-05-01T16:33:23.645Z,50.56
2023-05-01T16:35:52.466Z,48.96
2023-05-01T16:38:21.748Z,49.99
2023-05-01T16:40:49.845Z,50.93
2023-05-01T16:43:20.107Z,49.26
2023-05-01T16:45:48.376Z,48.11
2023-05-01T16:48:24.243Z,48.45
2023-05-01T16:50:53.353Z,48.36
2023-05-01T16:53:22.376Z,48.38
2023-05-01T16:55:50.608Z,48.47
2023-05-01T16:58:19.440Z,48.09
2023-05-01T17:00:47.707Z,48.20
2023-05-01T17:03:16.288Z,48.71
2023-05-01T17:05:44.996Z,49.73
2023-05-01T17:08:13.128Z,50.14
2023-05-01T17:10:41.299Z,49.42
2023-05-01T17:13:09.478Z,49.44
2023-05-01T17:15:37.865Z,49.66
2023-05-01T17:18:06.272Z,49.87
2023-05-01T17:20:34.559Z,51.13
2023-05-01T17:23:02.800Z,52.40
2023-05-01T17:25:31.149Z,53.22
2023-05-01T17:27:59.358Z,54.00
2023-05-01T17:30:27.690Z,55.28
2023-05-01T17:32:57.375Z,57.02
2023-05-01T17:35:26.646Z,58.86
2023-05-01T17:37:56.368Z,59.99
2023-05-01T17:40:24.449Z,61.40
2023-05-01T17:42:52.927Z,62.69
2023-05-01T17:45:21.222Z,63.17
2023-05-01T17:47:49.157Z,64.26
2023-05-01T17:50:17.461Z,65.70
2023-05-01T17:52:45.783Z,67.94
2023-05-01T17:55:17.119Z,68.85
2023-05-01T17:57:47.327Z,70.49
2023-05-01T18:00:16.466Z,72.19
2023-05-01T18:02:46.650Z,73.63
2023-05-01T18:05:15.425Z,75.04
2023-05-01T18:07:44.307Z,76.65
2023-05-01T18:10:12.668Z,78.08
2023-05-01T18:12:40.860Z,79.38
2023-05-01T18:15:09.963Z,80.44
2023-05-01T18:17:38.144Z,81.75
2023-05-01T18:20:07.770Z,83.06
2023-05-01T18:22:35.999Z,84.43
2023-05-01T18:25:05.488Z,86.50
2023-05-01T18:27:34.182Z,87.85
2023-05-01T18:30:03.530Z,89.97
2023-05-01T18:32:46.225Z,91.85
2023-05-01T18:35:17.485Z,93.87
2023-05-01T18:37:45.851Z,95.17
2023-05-01T18:40:14.889Z,96.95
2023-05-01T18:42:46.902Z,97.85
2023-05-01T18:45:15.081Z,99.65
2023-05-01T18:47:43.464Z,100.00
2023-05-01T18:50:11.860Z,100.00
2023-05-01T18:52:41.873Z,100.00
2023-05-01T18:55:11.827Z,100.00
2023-05-01T18:57:43.836Z,100.00
2023-05-01T19:00:15.856Z,100.00
2023-05-01T19:02:52.523Z,100.00
2023-05-01T19:05:22.902Z,100.00
2023-05-01T19:07:51.575Z,100.00
2023-05-01T19:10:20.520Z,100.00
2023-05-01T19:12:49.518Z,100.00
2023-05-01T19:15:18.046Z,100.00
2023-05-01T19:17:46.342Z,100.00
2023-05-01T19:20:14.633Z,100.00
2023-05-01T19:22:42.724Z,100.00
2023-05-01T19:25:11.152Z,100.00
2023-05-01T19:27:39.212Z,100.00
2023-05-01T19:30:08.250Z,100.00
2023-05-01T19:32:36.561Z,100.00
2023-05-01T19:35:05.488Z,100.00
2023-05-01T19:37:33.666Z,100.00
2023-05-01T19:40:02.065Z,100.00
2023-05-01T19:42:31.707Z,100.00
2023-05-01T19:44:59.783Z,100.00
2023-05-01T19:47:27.965Z,100.00
2023-05-01T19:49:57.747Z,100.00
2023-05-01T19:52:26.464Z,100.00
2023-05-01T19:54:54.717Z,100.00
2023-05-01T19:57:22.907Z,100.00
2023-05-01T19:59:52.933Z,100.00
2023-05-01T20:02:22.428Z,100.00
2023-05-01T20:04:50.732Z,100.00
2023-05-01T20:07:18.884Z,100.00
2023-05-01T20:09:47.638Z,100.00
2023-05-01T20:12:15.831Z,100.00
2023-05-01T20:14:44.727Z,100.00
2023-05-01T20:17:12.849Z,100.00
2023-05-01T20:19:41.080Z,100.00
2023-05-01T20:22:10.715Z,100.00
2023-05-01T20:24:39.236Z,100.00
2023-05-01T20:27:07.427Z,100.00
2023-05-01T20:29:35.645Z,100.00
2023-05-01T20:32:04.032Z,100.00
2023-05-01T20:34:32.769Z,100.00
2023-05-01T20:37:01.027Z,100.00
2023-05-01T20:39:29.815Z,100.00
2023-05-01T20:41:59.561Z,100.00
2023-05-01T20:44:28.037Z,100.00
2023-05-01T20:46:56.445Z,100.00
2023-05-01T20:49:24.943Z,100.00
2023-05-01T20:51:53.208Z,100.00
2023-05-01T20:54:21.430Z,100.00
2023-05-01T20:56:49.516Z,100.00
2023-05-01T20:59:18.010Z,100.00
2023-05-01T21:01:46.150Z,100.00
2023-05-01T21:04:14.554Z,100.00
2023-05-01T21:06:42.821Z,100.00
2023-05-01T21:09:15.177Z,100.00
2023-05-01T21:11:43.503Z,100.00
2023-05-01T21:14:12.387Z,100.00
2023-05-01T21:16:41.606Z,100.00
2023-05-01T21:19:12.965Z,100.00
2023-05-01T21:21:41.029Z,100.00
2023-05-01T21:24:13.005Z,100.00
2023-05-01T21:26:41.357Z,100.00
2023-05-01T21:29:10.189Z,100.00
2023-05-01T21:31:39.389Z,100.00
2023-05-01T21:34:09.213Z,100.00
2023-05-01T21:36:46.985Z,100.00
2023-05-01T21:39:16.794Z,100.00
2023-05-01T21:41:48.695Z,100.00
2023-05-01T21:44:17.409Z,100.00
2023-05-01T21:46:45.611Z,100.00
2023-05-01T21:49:17.096Z,100.00
2023-05-01T21:51:45.239Z,100.00
2023-05-01T21:54:14.556Z,100.00
2023-05-01T21:56:42.926Z,100.00
2023-05-01T21:59:12.275Z,100.00
2023-05-01T22:01:41.826Z,100.00
2023-05-01T22:04:10.054Z,100.00
2023-05-01T22:06:38.348Z,100.00
2023-05-01T22:09:06.522Z,100.00
2023-05-01T22:11:35.237Z,100.00
2023-05-01T22:14:03.297Z,100.00
2023-05-01T22:16:31.490Z,100.00
2023-05-01T22:19:00.548Z,100.00
2023-05-01T22:21:30.874Z,100.00
2023-05-01T22:23:58.960Z,100.00
2023-05-01T22:26:27.105Z,100.00
2023-05-01T22:28:55.469Z,100.00
2023-05-01T22:31:23.697Z,100.00
2023-05-01T22:33:53.517Z,100.00
2023-05-01T22:36:21.667Z,100.00
2023-05-01T22:38:49.666Z,100.00
2023-05-01T22:41:17.720Z,100.00
2023-05-01T22:43:45.849Z,100.00
2023-05-01T22:46:13.791Z,100.00
2023-05-01T22:48:41.931Z,100.00
2023-05-01T22:51:10.075Z,100.00
2023-05-01T22:53:38.143Z,100.00
2023-05-01T22:56:07.103Z,100.00
2023-05-01T22:58:35.345Z,100.00
2023-05-01T23:01:03.615Z,100.00
2023-05-01T23:03:36.488Z,100.00
2023-05-01T23:06:06.613Z,100.00
2023-05-01T23:08:34.535Z,100.00
2023-05-01T23:11:04.716Z,100.00
2023-05-01T23:13:32.805Z,100.00
2023-05-01T23:16:00.828Z,100.00
2023-05-01T23:18:36.700Z,100.00
2023-05-01T23:21:05.406Z,100.00
2023-05-01T23:23:35.819Z,100.00
2023-05-01T23:26:03.866Z,100.00
2023-05-01T23:28:32.149Z,100.00
2023-05-01T23:31:02.682Z,100.00
2023-05-01T23:33:39.467Z,100.00
2023-05-01T23:36:12.466Z,100.00
2023-05-01T23:38:41.198Z,100.00
2023-05-01T23:41:09.473Z,100.00
2023-05-01T23:43:39.074Z,100.00
2023-05-01T23:46:08.133Z,100.00
2023-05-01T23:48:36.334Z,100.00
2023-05-01T23:51:04.615Z,100.00
2023-05-01T23:53:33.021Z,100.00
2023-05-01T23:56:01.300Z,100.00
2023-05-01T23:58:29.246Z,100.00
